sensor_id;sensor_type;location;lat;lon;timestamp;pressure;altitude;pressure_sealevel;temperature
48894;BMP280;34710;35.798;139.446;2023-01-16T00:00:08;99949.50;;;10.58
48894;BMP280;34710;35.798;139.446;2023-01-16T00:02:38;99951.08;;;10.71
48894;BMP280;34710;35.798;139.446;2023-01-16T00:05:07;99959.92;;;10.69
48894;BMP280;34710;35.798;139.446;2023-01-16T00:07:37;99969.74;;;10.68
48894;BMP280;34710;35.798;139.446;2023-01-16T00:10:07;99975.01;;;10.58
48894;BMP280;34710;35.798;139.446;2023-01-16T00:12:37;99984.33;;;10.55
48894;BMP280;34710;35.798;139.446;2023-01-16T00:15:07;99985.75;;;10.59
48894;BMP280;34710;35.798;139.446;2023-01-16T00:17:36;99979.93;;;10.55
48894;BMP280;34710;35.798;139.446;2023-01-16T00:20:06;99981.86;;;10.31
48894;BMP280;34710;35.798;139.446;2023-01-16T00:22:35;99988.52;;;10.62
48894;BMP280;34710;35.798;139.446;2023-01-16T00:25:05;99993.06;;;10.67
48894;BMP280;34710;35.798;139.446;2023-01-16T00:27:35;100007.25;;;10.63
48894;BMP280;34710;35.798;139.446;2023-01-16T00:30:06;100007.06;;;10.66
48894;BMP280;34710;35.798;139.446;2023-01-16T00:32:35;100001.08;;;10.69
48894;BMP280;34710;35.798;139.446;2023-01-16T00:35:05;99999.33;;;10.59
48894;BMP280;34710;35.798;139.446;2023-01-16T00:37:34;99996.10;;;10.68
48894;BMP280;34710;35.798;139.446;2023-01-16T00:40:03;99990.91;;;10.78
48894;BMP280;34710;35.798;139.446;2023-01-16T00:42:33;99992.66;;;10.77
48894;BMP280;34710;35.798;139.446;2023-01-16T00:45:02;99993.54;;;10.92
48894;BMP280;34710;35.798;139.446;2023-01-16T00:47:31;99994.78;;;11.03
48894;BMP280;34710;35.798;139.446;2023-01-16T00:50:00;99997.71;;;11.08
48894;BMP280;34710;35.798;139.446;2023-01-16T00:52:29;99995.99;;;11.16
48894;BMP280;34710;35.798;139.446;2023-01-16T00:54:59;99998.40;;;11.16
48894;BMP280;34710;35.798;139.446;2023-01-16T00:57:29;99998.75;;;11.04
48894;BMP280;34710;35.798;139.446;2023-01-16T00:59:58;99982.18;;;11.13
48894;BMP280;34710;35.798;139.446;2023-01-16T01:02:27;99987.81;;;10.86
48894;BMP280;34710;35.798;139.446;2023-01-16T01:04:56;99995.81;;;11.08
48894;BMP280;34710;35.798;139.446;2023-01-16T01:07:25;100001.50;;;10.83
48894;BMP280;34710;35.798;139.446;2023-01-16T01:09:55;100008.38;;;10.82
48894;BMP280;34710;35.798;139.446;2023-01-16T01:12:24;100015.71;;;10.96
48894;BMP280;34710;35.798;139.446;2023-01-16T01:14:53;100016.52;;;10.94
48894;BMP280;34710;35.798;139.446;2023-01-16T01:17:23;100014.48;;;11.18
48894;BMP280;34710;35.798;139.446;2023-01-16T01:19:52;100006.74;;;11.13
48894;BMP280;34710;35.798;139.446;2023-01-16T01:22:21;99993.48;;;10.82
48894;BMP280;34710;35.798;139.446;2023-01-16T01:24:51;99992.57;;;10.96
48894;BMP280;34710;35.798;139.446;2023-01-16T01:27:20;99986.93;;;11.10
48894;BMP280;34710;35.798;139.446;2023-01-16T01:29:50;99981.07;;;10.97
48894;BMP280;34710;35.798;139.446;2023-01-16T01:32:19;99984.81;;;11.16
48894;BMP280;34710;35.798;139.446;2023-01-16T01:34:48;99987.50;;;10.98
48894;BMP280;34710;35.798;139.446;2023-01-16T01:37:17;99983.05;;;11.10
48894;BMP280;34710;35.798;139.446;2023-01-16T01:39:46;99987.46;;;11.18
48894;BMP280;34710;35.798;139.446;2023-01-16T01:42:16;99992.01;;;11.38
48894;BMP280;34710;35.798;139.446;2023-01-16T01:44:51;99990.48;;;11.21
48894;BMP280;34710;35.798;139.446;2023-01-16T01:47:25;99991.72;;;11.12
48894;BMP280;34710;35.798;139.446;2023-01-16T01:49:56;99994.51;;;11.20
48894;BMP280;34710;35.798;139.446;2023-01-16T01:52:27;99991.12;;;11.29
48894;BMP280;34710;35.798;139.446;2023-01-16T01:55:01;99993.99;;;11.61
48894;BMP280;34710;35.798;139.446;2023-01-16T01:57:34;99990.30;;;11.29
48894;BMP280;34710;35.798;139.446;2023-01-16T02:00:09;99987.91;;;11.00
48894;BMP280;34710;35.798;139.446;2023-01-16T02:02:42;99977.98;;;11.48
48894;BMP280;34710;35.798;139.446;2023-01-16T02:05:15;99974.23;;;11.20
48894;BMP280;34710;35.798;139.446;2023-01-16T02:07:45;99969.25;;;11.35
48894;BMP280;34710;35.798;139.446;2023-01-16T02:10:24;99963.89;;;10.87
48894;BMP280;34710;35.798;139.446;2023-01-16T02:12:57;99954.48;;;11.02
48894;BMP280;34710;35.798;139.446;2023-01-16T02:15:26;99951.68;;;11.48
48894;BMP280;34710;35.798;139.446;2023-01-16T02:17:56;99949.78;;;11.20
48894;BMP280;34710;35.798;139.446;2023-01-16T02:20:26;99942.94;;;11.12
48894;BMP280;34710;35.798;139.446;2023-01-16T02:23:31;99942.25;;;11.59
48894;BMP280;34710;35.798;139.446;2023-01-16T02:26:23;99936.01;;;11.38
48894;BMP280;34710;35.798;139.446;2023-01-16T02:29:44;99933.75;;;10.55
48894;BMP280;34710;35.798;139.446;2023-01-16T02:32:29;99919.64;;;11.22
48894;BMP280;34710;35.798;139.446;2023-01-16T02:35:12;99917.06;;;11.23
48894;BMP280;34710;35.798;139.446;2023-01-16T02:37:47;99919.50;;;11.01
48894;BMP280;34710;35.798;139.446;2023-01-16T02:40:29;99919.24;;;11.15
48894;BMP280;34710;35.798;139.446;2023-01-16T02:43:11;99919.54;;;11.54
48894;BMP280;34710;35.798;139.446;2023-01-16T02:45:48;99925.00;;;11.31
48894;BMP280;34710;35.798;139.446;2023-01-16T02:48:25;99923.50;;;11.62
48894;BMP280;34710;35.798;139.446;2023-01-16T02:51:01;99914.77;;;11.34
48894;BMP280;34710;35.798;139.446;2023-01-16T02:53:37;99914.53;;;11.67
48894;BMP280;34710;35.798;139.446;2023-01-16T02:56:12;99917.38;;;11.44
48894;BMP280;34710;35.798;139.446;2023-01-16T02:58:45;99915.72;;;11.46
48894;BMP280;34710;35.798;139.446;2023-01-16T03:01:17;99911.88;;;11.47
48894;BMP280;34710;35.798;139.446;2023-01-16T03:04:02;99906.87;;;11.56
48894;BMP280;34710;35.798;139.446;2023-01-16T03:06:43;99896.29;;;11.55
48894;BMP280;34710;35.798;139.446;2023-01-16T03:09:23;99897.31;;;11.18
48894;BMP280;34710;35.798;139.446;2023-01-16T03:12:10;99899.31;;;11.52
48894;BMP280;34710;35.798;139.446;2023-01-16T03:14:47;99898.63;;;11.71
48894;BMP280;34710;35.798;139.446;2023-01-16T03:17:29;99907.02;;;11.40
48894;BMP280;34710;35.798;139.446;2023-01-16T03:20:12;99911.40;;;11.52
48894;BMP280;34710;35.798;139.446;2023-01-16T03:22:50;99915.36;;;11.28
48894;BMP280;34710;35.798;139.446;2023-01-16T03:25:27;99917.54;;;11.46
48894;BMP280;34710;35.798;139.446;2023-01-16T03:28:04;99921.88;;;11.42
48894;BMP280;34710;35.798;139.446;2023-01-16T03:30:43;99918.17;;;11.10
48894;BMP280;34710;35.798;139.446;2023-01-16T03:33:22;99921.40;;;11.51
48894;BMP280;34710;35.798;139.446;2023-01-16T03:35:57;99924.35;;;11.04
48894;BMP280;34710;35.798;139.446;2023-01-16T03:38:30;99921.49;;;10.96
48894;BMP280;34710;35.798;139.446;2023-01-16T03:41:02;99918.85;;;11.26
48894;BMP280;34710;35.798;139.446;2023-01-16T03:43:35;99921.19;;;11.43
48894;BMP280;34710;35.798;139.446;2023-01-16T03:46:09;99923.88;;;11.41
48894;BMP280;34710;35.798;139.446;2023-01-16T03:48:44;99917.03;;;11.46
48894;BMP280;34710;35.798;139.446;2023-01-16T03:51:21;99929.71;;;11.34
48894;BMP280;34710;35.798;139.446;2023-01-16T03:54:00;99930.68;;;11.28
48894;BMP280;34710;35.798;139.446;2023-01-16T03:56:34;99930.08;;;11.19
48894;BMP280;34710;35.798;139.446;2023-01-16T03:59:06;99932.58;;;11.36
48894;BMP280;34710;35.798;139.446;2023-01-16T04:01:38;99927.19;;;11.33
48894;BMP280;34710;35.798;139.446;2023-01-16T04:04:15;99929.44;;;11.11
48894;BMP280;34710;35.798;139.446;2023-01-16T04:06:51;99941.07;;;10.64
48894;BMP280;34710;35.798;139.446;2023-01-16T04:09:27;99950.63;;;10.73
48894;BMP280;34710;35.798;139.446;2023-01-16T04:11:59;99947.66;;;10.66
48894;BMP280;34710;35.798;139.446;2023-01-16T04:14:30;99952.07;;;10.63
48894;BMP280;34710;35.798;139.446;2023-01-16T04:17:00;99943.59;;;10.70
48894;BMP280;34710;35.798;139.446;2023-01-16T04:19:32;99938.91;;;11.15
48894;BMP280;34710;35.798;139.446;2023-01-16T04:22:07;99940.05;;;10.93
48894;BMP280;34710;35.798;139.446;2023-01-16T04:24:36;99945.33;;;10.91
48894;BMP280;34710;35.798;139.446;2023-01-16T04:27:06;99948.51;;;11.08
48894;BMP280;34710;35.798;139.446;2023-01-16T04:29:35;99949.78;;;11.58
48894;BMP280;34710;35.798;139.446;2023-01-16T04:32:04;99948.09;;;11.11
48894;BMP280;34710;35.798;139.446;2023-01-16T04:34:34;99946.64;;;11.40
48894;BMP280;34710;35.798;139.446;2023-01-16T04:37:02;99952.29;;;11.21
48894;BMP280;34710;35.798;139.446;2023-01-16T04:39:32;99959.21;;;11.74
48894;BMP280;34710;35.798;139.446;2023-01-16T04:42:02;99971.53;;;11.80
48894;BMP280;34710;35.798;139.446;2023-01-16T04:44:31;99977.80;;;11.72
48894;BMP280;34710;35.798;139.446;2023-01-16T04:47:00;99979.96;;;11.61
48894;BMP280;34710;35.798;139.446;2023-01-16T04:49:30;99972.92;;;10.61
48894;BMP280;34710;35.798;139.446;2023-01-16T04:51:59;99970.87;;;10.66
48894;BMP280;34710;35.798;139.446;2023-01-16T04:54:29;99970.88;;;10.54
48894;BMP280;34710;35.798;139.446;2023-01-16T04:56:58;99971.95;;;11.04
48894;BMP280;34710;35.798;139.446;2023-01-16T04:59:28;99973.86;;;11.26
48894;BMP280;34710;35.798;139.446;2023-01-16T05:01:57;99971.98;;;11.18
48894;BMP280;34710;35.798;139.446;2023-01-16T05:04:27;99969.58;;;11.28
48894;BMP280;34710;35.798;139.446;2023-01-16T05:06:55;99974.65;;;10.71
48894;BMP280;34710;35.798;139.446;2023-01-16T05:09:25;99972.89;;;11.40
48894;BMP280;34710;35.798;139.446;2023-01-16T05:11:54;99979.50;;;11.16
48894;BMP280;34710;35.798;139.446;2023-01-16T05:14:23;99982.46;;;11.31
48894;BMP280;34710;35.798;139.446;2023-01-16T05:16:53;99979.54;;;11.45
48894;BMP280;34710;35.798;139.446;2023-01-16T05:19:21;99969.00;;;11.40
48894;BMP280;34710;35.798;139.446;2023-01-16T05:21:51;99970.49;;;11.51
48894;BMP280;34710;35.798;139.446;2023-01-16T05:24:20;99978.00;;;10.07
48894;BMP280;34710;35.798;139.446;2023-01-16T05:26:49;99979.03;;;10.69
48894;BMP280;34710;35.798;139.446;2023-01-16T05:29:18;99984.40;;;10.76
48894;BMP280;34710;35.798;139.446;2023-01-16T05:31:47;99990.90;;;10.94
48894;BMP280;34710;35.798;139.446;2023-01-16T05:34:16;99993.91;;;10.84
48894;BMP280;34710;35.798;139.446;2023-01-16T05:36:45;99991.36;;;11.13
48894;BMP280;34710;35.798;139.446;2023-01-16T05:39:15;99996.78;;;10.95
48894;BMP280;34710;35.798;139.446;2023-01-16T05:41:43;100001.97;;;11.37
48894;BMP280;34710;35.798;139.446;2023-01-16T05:44:13;100006.05;;;10.05
48894;BMP280;34710;35.798;139.446;2023-01-16T05:46:42;100008.34;;;10.56
48894;BMP280;34710;35.798;139.446;2023-01-16T05:49:10;100018.41;;;11.06
48894;BMP280;34710;35.798;139.446;2023-01-16T05:51:40;100018.32;;;11.06
48894;BMP280;34710;35.798;139.446;2023-01-16T05:54:11;100022.31;;;10.87
48894;BMP280;34710;35.798;139.446;2023-01-16T05:56:41;100026.74;;;10.96
48894;BMP280;34710;35.798;139.446;2023-01-16T05:59:11;100027.40;;;10.86
48894;BMP280;34710;35.798;139.446;2023-01-16T06:01:40;100028.70;;;11.08
48894;BMP280;34710;35.798;139.446;2023-01-16T06:04:09;100035.31;;;11.33
48894;BMP280;34710;35.798;139.446;2023-01-16T06:06:37;100039.15;;;11.05
48894;BMP280;34710;35.798;139.446;2023-01-16T06:09:06;100052.22;;;11.04
48894;BMP280;34710;35.798;139.446;2023-01-16T06:11:36;100055.52;;;11.20
48894;BMP280;34710;35.798;139.446;2023-01-16T06:14:05;100061.34;;;11.11
48894;BMP280;34710;35.798;139.446;2023-01-16T06:16:35;100067.65;;;11.03
48894;BMP280;34710;35.798;139.446;2023-01-16T06:19:04;100069.08;;;10.73
48894;BMP280;34710;35.798;139.446;2023-01-16T06:21:33;100076.48;;;10.87
48894;BMP280;34710;35.798;139.446;2023-01-16T06:24:03;100068.19;;;10.75
48894;BMP280;34710;35.798;139.446;2023-01-16T06:26:33;100070.41;;;11.06
48894;BMP280;34710;35.798;139.446;2023-01-16T06:29:02;100079.94;;;11.25
48894;BMP280;34710;35.798;139.446;2023-01-16T06:31:32;100088.94;;;11.14
48894;BMP280;34710;35.798;139.446;2023-01-16T06:34:01;100090.26;;;10.68
48894;BMP280;34710;35.798;139.446;2023-01-16T06:36:31;100098.58;;;11.01
48894;BMP280;34710;35.798;139.446;2023-01-16T06:39:00;100105.36;;;11.04
48894;BMP280;34710;35.798;139.446;2023-01-16T06:41:30;100110.07;;;11.03
48894;BMP280;34710;35.798;139.446;2023-01-16T06:43:58;100125.41;;;11.01
48894;BMP280;34710;35.798;139.446;2023-01-16T06:46:28;100127.54;;;11.03
48894;BMP280;34710;35.798;139.446;2023-01-16T06:48:57;100137.72;;;11.48
48894;BMP280;34710;35.798;139.446;2023-01-16T06:51:26;100146.34;;;11.53
48894;BMP280;34710;35.798;139.446;2023-01-16T06:53:55;100152.46;;;11.31
48894;BMP280;34710;35.798;139.446;2023-01-16T06:56:25;100162.93;;;11.24
48894;BMP280;34710;35.798;139.446;2023-01-16T06:58:53;100163.30;;;11.65
48894;BMP280;34710;35.798;139.446;2023-01-16T07:01:22;100167.19;;;11.01
48894;BMP280;34710;35.798;139.446;2023-01-16T07:03:51;100173.53;;;10.98
48894;BMP280;34710;35.798;139.446;2023-01-16T07:06:21;100183.73;;;11.41
48894;BMP280;34710;35.798;139.446;2023-01-16T07:08:49;100190.91;;;11.05
48894;BMP280;34710;35.798;139.446;2023-01-16T07:11:19;100192.80;;;11.06
48894;BMP280;34710;35.798;139.446;2023-01-16T07:13:48;100200.42;;;10.91
48894;BMP280;34710;35.798;139.446;2023-01-16T07:16:18;100206.62;;;11.05
48894;BMP280;34710;35.798;139.446;2023-01-16T07:18:48;100211.35;;;11.23
48894;BMP280;34710;35.798;139.446;2023-01-16T07:21:17;100211.46;;;11.05
48894;BMP280;34710;35.798;139.446;2023-01-16T07:23:52;100214.80;;;10.86
48894;BMP280;34710;35.798;139.446;2023-01-16T07:26:22;100213.43;;;10.98
48894;BMP280;34710;35.798;139.446;2023-01-16T07:28:52;100213.58;;;10.95
48894;BMP280;34710;35.798;139.446;2023-01-16T07:31:22;100219.38;;;11.12
48894;BMP280;34710;35.798;139.446;2023-01-16T07:33:52;100214.25;;;10.73
48894;BMP280;34710;35.798;139.446;2023-01-16T07:36:21;100215.76;;;10.68
48894;BMP280;34710;35.798;139.446;2023-01-16T07:38:51;100219.84;;;10.70
48894;BMP280;34710;35.798;139.446;2023-01-16T07:41:20;100227.48;;;10.42
48894;BMP280;34710;35.798;139.446;2023-01-16T07:43:49;100229.98;;;10.17
48894;BMP280;34710;35.798;139.446;2023-01-16T07:46:18;100229.64;;;10.56
48894;BMP280;34710;35.798;139.446;2023-01-16T07:48:47;100238.03;;;10.15
48894;BMP280;34710;35.798;139.446;2023-01-16T07:51:17;100243.66;;;10.56
48894;BMP280;34710;35.798;139.446;2023-01-16T07:53:46;100246.57;;;10.41
48894;BMP280;34710;35.798;139.446;2023-01-16T07:56:15;100260.67;;;10.47
48894;BMP280;34710;35.798;139.446;2023-01-16T07:58:45;100267.56;;;10.56
48894;BMP280;34710;35.798;139.446;2023-01-16T08:01:15;100269.52;;;10.59
48894;BMP280;34710;35.798;139.446;2023-01-16T08:03:44;100267.92;;;10.65
48894;BMP280;34710;35.798;139.446;2023-01-16T08:06:13;100275.12;;;10.31
48894;BMP280;34710;35.798;139.446;2023-01-16T08:08:42;100275.62;;;10.15
48894;BMP280;34710;35.798;139.446;2023-01-16T08:11:11;100283.62;;;10.25
48894;BMP280;34710;35.798;139.446;2023-01-16T08:13:40;100287.84;;;10.42
48894;BMP280;34710;35.798;139.446;2023-01-16T08:16:09;100297.01;;;10.40
48894;BMP280;34710;35.798;139.446;2023-01-16T08:18:38;100300.73;;;10.44
48894;BMP280;34710;35.798;139.446;2023-01-16T08:21:08;100305.70;;;10.62
48894;BMP280;34710;35.798;139.446;2023-01-16T08:23:37;100309.56;;;10.52
48894;BMP280;34710;35.798;139.446;2023-01-16T08:26:06;100314.17;;;10.62
48894;BMP280;34710;35.798;139.446;2023-01-16T08:28:35;100324.97;;;10.55
48894;BMP280;34710;35.798;139.446;2023-01-16T08:31:07;100326.38;;;10.48
48894;BMP280;34710;35.798;139.446;2023-01-16T08:33:37;100332.25;;;10.44
48894;BMP280;34710;35.798;139.446;2023-01-16T08:36:08;100333.36;;;10.36
48894;BMP280;34710;35.798;139.446;2023-01-16T08:38:39;100343.05;;;10.56
48894;BMP280;34710;35.798;139.446;2023-01-16T08:41:08;100344.25;;;10.48
48894;BMP280;34710;35.798;139.446;2023-01-16T08:43:37;100354.49;;;10.37
48894;BMP280;34710;35.798;139.446;2023-01-16T08:46:15;100360.79;;;10.22
48894;BMP280;34710;35.798;139.446;2023-01-16T08:48:45;100356.62;;;10.63
48894;BMP280;34710;35.798;139.446;2023-01-16T08:51:17;100365.03;;;10.26
48894;BMP280;34710;35.798;139.446;2023-01-16T08:53:47;100379.36;;;10.33
48894;BMP280;34710;35.798;139.446;2023-01-16T08:56:17;100379.40;;;10.38
48894;BMP280;34710;35.798;139.446;2023-01-16T08:58:46;100383.88;;;10.20
48894;BMP280;34710;35.798;139.446;2023-01-16T09:01:16;100386.34;;;9.99
48894;BMP280;34710;35.798;139.446;2023-01-16T09:03:46;100393.29;;;10.33
48894;BMP280;34710;35.798;139.446;2023-01-16T09:06:15;100400.82;;;10.29
48894;BMP280;34710;35.798;139.446;2023-01-16T09:08:44;100408.55;;;10.02
48894;BMP280;34710;35.798;139.446;2023-01-16T09:11:13;100402.30;;;9.88
48894;BMP280;34710;35.798;139.446;2023-01-16T09:13:43;100407.58;;;9.65
48894;BMP280;34710;35.798;139.446;2023-01-16T09:16:13;100407.85;;;9.73
48894;BMP280;34710;35.798;139.446;2023-01-16T09:18:42;100408.02;;;9.64
48894;BMP280;34710;35.798;139.446;2023-01-16T09:21:11;100410.97;;;8.88
48894;BMP280;34710;35.798;139.446;2023-01-16T09:23:41;100424.97;;;8.95
48894;BMP280;34710;35.798;139.446;2023-01-16T09:26:10;100430.41;;;8.36
48894;BMP280;34710;35.798;139.446;2023-01-16T09:28:39;100436.62;;;7.90
48894;BMP280;34710;35.798;139.446;2023-01-16T09:31:08;100447.64;;;8.30
48894;BMP280;34710;35.798;139.446;2023-01-16T09:33:38;100444.43;;;7.91
48894;BMP280;34710;35.798;139.446;2023-01-16T09:36:08;100445.88;;;7.51
48894;BMP280;34710;35.798;139.446;2023-01-16T09:38:37;100448.95;;;7.58
48894;BMP280;34710;35.798;139.446;2023-01-16T09:41:08;100457.09;;;7.03
48894;BMP280;34710;35.798;139.446;2023-01-16T09:43:42;100456.63;;;7.36
48894;BMP280;34710;35.798;139.446;2023-01-16T09:46:19;100455.70;;;7.53
48894;BMP280;34710;35.798;139.446;2023-01-16T09:48:53;100456.64;;;7.40
48894;BMP280;34710;35.798;139.446;2023-01-16T09:51:28;100470.98;;;7.21
48894;BMP280;34710;35.798;139.446;2023-01-16T09:54:02;100469.32;;;7.56
48894;BMP280;34710;35.798;139.446;2023-01-16T09:56:36;100484.89;;;7.57
48894;BMP280;34710;35.798;139.446;2023-01-16T09:59:19;100487.52;;;6.86
48894;BMP280;34710;35.798;139.446;2023-01-16T10:01:55;100496.32;;;7.43
48894;BMP280;34710;35.798;139.446;2023-01-16T10:04:26;100495.59;;;6.97
48894;BMP280;34710;35.798;139.446;2023-01-16T10:07:09;100496.80;;;6.99
48894;BMP280;34710;35.798;139.446;2023-01-16T10:09:45;100499.83;;;7.15
48894;BMP280;34710;35.798;139.446;2023-01-16T10:12:19;100501.22;;;7.34
48894;BMP280;34710;35.798;139.446;2023-01-16T10:14:58;100515.16;;;6.79
48894;BMP280;34710;35.798;139.446;2023-01-16T10:17:39;100501.15;;;7.02
48894;BMP280;34710;35.798;139.446;2023-01-16T10:20:24;100515.32;;;7.48
48894;BMP280;34710;35.798;139.446;2023-01-16T10:23:08;100516.62;;;7.56
48894;BMP280;34710;35.798;139.446;2023-01-16T10:25:48;100520.07;;;7.46
48894;BMP280;34710;35.798;139.446;2023-01-16T10:28:28;100526.66;;;7.25
48894;BMP280;34710;35.798;139.446;2023-01-16T10:31:08;100523.91;;;7.40
48894;BMP280;34710;35.798;139.446;2023-01-16T10:33:43;100523.77;;;7.43
48894;BMP280;34710;35.798;139.446;2023-01-16T10:36:16;100530.22;;;7.12
48894;BMP280;34710;35.798;139.446;2023-01-16T10:38:49;100534.38;;;7.17
48894;BMP280;34710;35.798;139.446;2023-01-16T10:41:20;100541.62;;;7.19
48894;BMP280;34710;35.798;139.446;2023-01-16T10:43:52;100554.42;;;6.58
48894;BMP280;34710;35.798;139.446;2023-01-16T10:46:22;100554.11;;;6.72
48894;BMP280;34710;35.798;139.446;2023-01-16T10:48:51;100557.51;;;7.26
48894;BMP280;34710;35.798;139.446;2023-01-16T10:51:21;100564.22;;;6.85
48894;BMP280;34710;35.798;139.446;2023-01-16T10:53:51;100570.48;;;6.87
48894;BMP280;34710;35.798;139.446;2023-01-16T10:56:20;100571.55;;;7.28
48894;BMP280;34710;35.798;139.446;2023-01-16T10:58:49;100578.25;;;6.79
48894;BMP280;34710;35.798;139.446;2023-01-16T11:01:20;100575.72;;;7.13
48894;BMP280;34710;35.798;139.446;2023-01-16T11:03:53;100570.38;;;7.35
48894;BMP280;34710;35.798;139.446;2023-01-16T11:06:24;100570.28;;;7.26
48894;BMP280;34710;35.798;139.446;2023-01-16T11:08:59;100576.15;;;7.27
48894;BMP280;34710;35.798;139.446;2023-01-16T11:11:33;100580.47;;;7.41
48894;BMP280;34710;35.798;139.446;2023-01-16T11:14:10;100573.84;;;7.26
48894;BMP280;34710;35.798;139.446;2023-01-16T11:16:40;100573.85;;;7.73
48894;BMP280;34710;35.798;139.446;2023-01-16T11:19:18;100581.59;;;7.55
48894;BMP280;34710;35.798;139.446;2023-01-16T11:21:52;100584.51;;;7.53
48894;BMP280;34710;35.798;139.446;2023-01-16T11:24:24;100583.92;;;7.57
48894;BMP280;34710;35.798;139.446;2023-01-16T11:26:59;100588.62;;;7.66
48894;BMP280;34710;35.798;139.446;2023-01-16T11:29:33;100584.72;;;7.35
48894;BMP280;34710;35.798;139.446;2023-01-16T11:32:08;100586.95;;;7.18
48894;BMP280;34710;35.798;139.446;2023-01-16T11:34:43;100577.20;;;7.52
48894;BMP280;34710;35.798;139.446;2023-01-16T11:37:15;100578.61;;;7.20
48894;BMP280;34710;35.798;139.446;2023-01-16T11:39:49;100587.67;;;7.18
48894;BMP280;34710;35.798;139.446;2023-01-16T11:42:19;100591.98;;;7.35
48894;BMP280;34710;35.798;139.446;2023-01-16T11:44:50;100600.78;;;6.84
48894;BMP280;34710;35.798;139.446;2023-01-16T11:47:23;100598.36;;;7.03
48894;BMP280;34710;35.798;139.446;2023-01-16T11:49:55;100597.68;;;6.00
48894;BMP280;34710;35.798;139.446;2023-01-16T11:52:24;100593.28;;;6.84
48894;BMP280;34710;35.798;139.446;2023-01-16T11:54:54;100600.08;;;6.80
48894;BMP280;34710;35.798;139.446;2023-01-16T11:57:35;100591.48;;;7.07
48894;BMP280;34710;35.798;139.446;2023-01-16T12:00:23;100590.56;;;6.93
48894;BMP280;34710;35.798;139.446;2023-01-16T12:04:58;100593.55;;;8.58
48894;BMP280;34710;35.798;139.446;2023-01-16T12:07:38;100601.08;;;7.23
48894;BMP280;34710;35.798;139.446;2023-01-16T12:10:22;100603.56;;;7.36
48894;BMP280;34710;35.798;139.446;2023-01-16T12:12:59;100608.97;;;7.02
48894;BMP280;34710;35.798;139.446;2023-01-16T12:15:35;100616.15;;;6.79
48894;BMP280;34710;35.798;139.446;2023-01-16T12:18:12;100621.36;;;7.23
48894;BMP280;34710;35.798;139.446;2023-01-16T12:20:52;100613.94;;;6.55
48894;BMP280;34710;35.798;139.446;2023-01-16T12:24:21;100619.66;;;7.70
48894;BMP280;34710;35.798;139.446;2023-01-16T12:27:08;100620.48;;;7.09
48894;BMP280;34710;35.798;139.446;2023-01-16T12:29:54;100621.59;;;6.50
48894;BMP280;34710;35.798;139.446;2023-01-16T12:32:38;100631.63;;;6.62
48894;BMP280;34710;35.798;139.446;2023-01-16T12:35:21;100637.95;;;6.26
48894;BMP280;34710;35.798;139.446;2023-01-16T12:38:33;100638.30;;;6.95
48894;BMP280;34710;35.798;139.446;2023-01-16T12:41:16;100642.81;;;5.78
48894;BMP280;34710;35.798;139.446;2023-01-16T12:43:55;100653.45;;;5.88
48894;BMP280;34710;35.798;139.446;2023-01-16T12:46:33;100651.92;;;6.14
48894;BMP280;34710;35.798;139.446;2023-01-16T12:49:15;100656.26;;;6.10
48894;BMP280;34710;35.798;139.446;2023-01-16T12:51:57;100649.35;;;6.23
48894;BMP280;34710;35.798;139.446;2023-01-16T12:54:43;100660.07;;;6.25
48894;BMP280;34710;35.798;139.446;2023-01-16T12:57:28;100666.41;;;6.22
48894;BMP280;34710;35.798;139.446;2023-01-16T13:00:01;100670.59;;;6.45
48894;BMP280;34710;35.798;139.446;2023-01-16T13:02:36;100671.99;;;6.58
48894;BMP280;34710;35.798;139.446;2023-01-16T13:05:10;100679.81;;;7.79
48894;BMP280;34710;35.798;139.446;2023-01-16T13:07:46;100683.21;;;7.58
48894;BMP280;34710;35.798;139.446;2023-01-16T13:10:21;100687.67;;;7.57
48894;BMP280;34710;35.798;139.446;2023-01-16T13:12:52;100692.52;;;7.69
48894;BMP280;34710;35.798;139.446;2023-01-16T13:15:25;100689.22;;;7.73
48894;BMP280;34710;35.798;139.446;2023-01-16T13:17:58;100688.80;;;7.92
48894;BMP280;34710;35.798;139.446;2023-01-16T13:20:31;100690.25;;;7.90
48894;BMP280;34710;35.798;139.446;2023-01-16T13:23:06;100692.61;;;7.25
48894;BMP280;34710;35.798;139.446;2023-01-16T13:25:42;100698.00;;;6.76
48894;BMP280;34710;35.798;139.446;2023-01-16T13:28:35;100704.23;;;6.28
48894;BMP280;34710;35.798;139.446;2023-01-16T13:31:21;100712.55;;;6.42
48894;BMP280;34710;35.798;139.446;2023-01-16T13:34:00;100718.88;;;5.76
48894;BMP280;34710;35.798;139.446;2023-01-16T13:37:29;100723.80;;;6.15
48894;BMP280;34710;35.798;139.446;2023-01-16T13:40:26;100718.76;;;5.88
48894;BMP280;34710;35.798;139.446;2023-01-16T13:43:03;100723.37;;;5.72
48894;BMP280;34710;35.798;139.446;2023-01-16T13:45:34;100728.01;;;5.70
48894;BMP280;34710;35.798;139.446;2023-01-16T13:48:05;100729.86;;;5.98
48894;BMP280;34710;35.798;139.446;2023-01-16T13:50:36;100742.44;;;6.67
48894;BMP280;34710;35.798;139.446;2023-01-16T13:53:08;100746.45;;;6.78
48894;BMP280;34710;35.798;139.446;2023-01-16T13:55:39;100752.79;;;6.31
48894;BMP280;34710;35.798;139.446;2023-01-16T13:58:13;100764.33;;;6.37
48894;BMP280;34710;35.798;139.446;2023-01-16T14:00:44;100762.16;;;7.00
48894;BMP280;34710;35.798;139.446;2023-01-16T14:03:20;100769.09;;;6.96
48894;BMP280;34710;35.798;139.446;2023-01-16T14:05:53;100778.34;;;6.80
48894;BMP280;34710;35.798;139.446;2023-01-16T14:08:44;100783.21;;;6.87
48894;BMP280;34710;35.798;139.446;2023-01-16T14:11:27;100793.87;;;7.17
48894;BMP280;34710;35.798;139.446;2023-01-16T14:14:33;100798.36;;;7.67
48894;BMP280;34710;35.798;139.446;2023-01-16T14:17:03;100798.71;;;7.03